Airfield :
LOGIN :

Register | Disclaimer

   EN    FR    IT 

 










Legend :    VFR   Marginal VFR   IFR   Intensive IFR   Very Intensive IFR
Visi :
Ceiling :
>= 8 km
>= 3000ft
5 to 8 km
1000 to 3000 ft
1500m to 5 km
500 to 1000 ft
800 to 1500m
200 to 500 ft
< 800m
< 200 ft
Symbols :   Thunderstorms  Fog  Heavy snow  Heavy precipitations  Wind > 20 kt
SIGMETs :     Misc.  Thunderstorms  Icing  Turbulence  Mountain Waves  Volcanic Ashes






- Airport Elevation : 3368 ft


LSGC - Les Eplatures

CURRENT METAR :
  • 221320Z VRB02KT CAVOK 24/15 Q1015

EXPIRED METARs :
  • 221250Z 16004KT CAVOK 24/14 Q1015
  • 221220Z VRB02KT CAVOK 23/13 Q1015
  • 221150Z 20003KT 120V250 CAVOK 23/13 Q1016
  • 221120Z VRB03KT CAVOK 23/14 Q1016
  • 221050Z 15003KT 110V180 CAVOK 23/14 Q1016

TAF TAF LSGC
Valid from the 22 at 12:00 until the 22 at 21:00 UTC


221125Z 2212/2221 VRB02KT CAVOK



MET'MAP, your aeronautical weather chart ! - Copyright ORBIFLY December 2007 - Disclaimer

ORBIFLY MET'MAP TEAM :

Programming & Development : Alexandra Zaïnal
Original concept : Baudouin d'Aumeries
Technical & hardware support : Manuel Goepfert
Assistance : Marc-Olivier Méhu

Contact : metmap@orbifly.com




SOURCES & CREDITS :

   NOAA